createdAt,value
2019-01-24T00:00:58.356Z,95957.20
2019-01-24T00:03:28.609Z,95956.98
2019-01-24T00:05:59.905Z,95956.02
2019-01-24T00:08:30.172Z,95962.31
2019-01-24T00:10:57.510Z,95964.91
2019-01-24T00:13:26.542Z,95964.39
2019-01-24T00:15:53.249Z,95961.80
2019-01-24T00:18:21.310Z,95966.19
2019-01-24T00:20:49.211Z,95966.13
2019-01-24T00:23:19.581Z,95962.89
2019-01-24T00:25:51.020Z,95968.56
2019-01-24T00:28:21.942Z,95969.23
2019-01-24T00:30:49.357Z,95968.29
2019-01-24T00:33:17.015Z,95967.05
2019-01-24T00:35:51.389Z,95965.75
2019-01-24T00:38:19.271Z,95967.21
2019-01-24T00:40:46.974Z,95966.11
2019-01-24T00:43:18.595Z,95967.66
2019-01-24T00:45:46.904Z,95969.31
2019-01-24T00:48:14.851Z,95969.87
2019-01-24T00:50:42.766Z,95966.41
2019-01-24T00:53:10.641Z,95975.81
2019-01-24T00:55:38.310Z,95979.57
2019-01-24T00:58:05.269Z,95986.63
2019-01-24T01:00:35.179Z,95987.78
2019-01-24T01:03:02.955Z,95989.36
2019-01-24T01:05:31.039Z,95991.03
2019-01-24T01:10:50.544Z,95987.77
2019-01-24T01:13:17.779Z,95986.25
2019-01-24T01:15:45.654Z,95989.79
2019-01-24T01:18:17.240Z,95993.97
2019-01-24T01:20:46.185Z,95990.80
2019-01-24T01:23:15.044Z,95991.81
2019-01-24T01:25:47.503Z,95997.30
2019-01-24T01:28:18.187Z,95998.74
2019-01-24T01:30:45.988Z,96001.91
2019-01-24T01:33:14.679Z,96003.84
2019-01-24T01:35:43.156Z,96006.25
2019-01-24T01:38:13.393Z,96007.05
2019-01-24T01:40:44.900Z,96008.21
2019-01-24T01:43:15.753Z,96014.67
2019-01-24T01:45:45.400Z,96010.23
2019-01-24T01:48:16.512Z,96012.84
2019-01-24T01:50:44.922Z,96005.20
2019-01-24T01:53:12.113Z,96005.30
2019-01-24T01:55:53.143Z,95998.50
2019-01-24T01:58:09.586Z,95997.13
2019-01-24T02:00:37.618Z,95999.95
2019-01-24T02:03:07.078Z,95998.29
2019-01-24T02:05:39.859Z,95998.88
2019-01-24T02:08:07.534Z,96001.31
2019-01-24T02:10:36.428Z,95995.98
2019-01-24T02:13:06.953Z,96004.39
2019-01-24T02:18:18.345Z,96000.31
2019-01-24T02:20:45.472Z,95999.41
2019-01-24T02:23:30.414Z,95998.37
2019-01-24T02:26:01.209Z,96001.75
2019-01-24T02:28:32.223Z,96008.83
2019-01-24T02:30:59.849Z,96011.47
2019-01-24T02:33:27.935Z,96002.42
2019-01-24T02:38:45.465Z,96011.38
2019-01-24T02:41:12.098Z,96015.89
2019-01-24T02:43:39.037Z,96021.34
2019-01-24T02:46:05.962Z,96025.81
2019-01-24T02:48:32.762Z,96020.56
2019-01-24T02:50:59.428Z,96031.41
2019-01-24T02:53:26.278Z,96035.66
2019-01-24T02:55:53.237Z,96038.16
2019-01-24T02:58:20.217Z,96028.43
2019-01-24T03:00:47.219Z,96031.01
2019-01-24T03:03:15.757Z,96028.92
2019-01-24T03:05:43.102Z,96029.09
2019-01-24T03:08:09.800Z,96025.95
2019-01-24T03:10:36.506Z,96033.41
2019-01-24T03:13:03.439Z,96041.33
2019-01-24T03:15:31.022Z,96039.70
2019-01-24T03:17:57.799Z,96038.28
2019-01-24T03:20:24.734Z,96033.47
2019-01-24T03:22:51.533Z,96042.08
2019-01-24T03:25:18.570Z,96045.02
2019-01-24T03:27:46.003Z,96051.91
2019-01-24T03:30:12.633Z,96056.99
2019-01-24T03:32:39.317Z,96050.64
2019-01-24T03:35:06.135Z,96056.70
2019-01-24T03:37:33.119Z,96050.80
2019-01-24T03:39:59.899Z,96056.88
2019-01-24T03:42:26.523Z,96056.89
2019-01-24T03:44:53.275Z,96061.81
2019-01-24T03:47:20.263Z,96058.84
2019-01-24T03:49:47.253Z,96066.39
2019-01-24T03:52:14.250Z,96076.38
2019-01-24T03:54:40.974Z,96081.78
2019-01-24T03:57:07.691Z,96079.38
2019-01-24T03:59:34.676Z,96083.06
2019-01-24T04:02:01.691Z,96083.64
2019-01-24T04:04:28.676Z,96085.15
2019-01-24T04:06:55.378Z,96094.94
2019-01-24T04:09:21.970Z,96090.83
2019-01-24T04:11:48.721Z,96095.84
2019-01-24T04:14:17.147Z,96100.36
2019-01-24T04:16:43.850Z,96101.52
2019-01-24T04:19:11.092Z,96100.77
2019-01-24T04:21:38.114Z,96094.83
2019-01-24T04:24:04.923Z,96095.28
2019-01-24T04:26:32.140Z,96103.07
2019-01-24T04:28:58.946Z,96101.63
2019-01-24T04:31:25.590Z,96096.98
2019-01-24T04:33:52.516Z,96099.69
2019-01-24T04:36:21.436Z,96104.32
2019-01-24T04:38:52.902Z,96103.57
2019-01-24T04:41:19.505Z,96107.78
2019-01-24T04:43:48.836Z,96111.31
2019-01-24T04:46:20.860Z,96120.02
2019-01-24T04:48:49.953Z,96121.97
2019-01-24T04:51:17.671Z,96130.16
2019-01-24T04:53:47.786Z,96125.50
2019-01-24T04:56:17.394Z,96133.88
2019-01-24T04:58:44.484Z,96136.68
2019-01-24T05:01:11.219Z,96136.74
2019-01-24T05:03:37.792Z,96133.73
2019-01-24T05:06:04.464Z,96134.66
2019-01-24T05:08:31.576Z,96140.70
2019-01-24T05:10:58.614Z,96140.10
2019-01-24T05:13:25.628Z,96145.64
2019-01-24T05:15:52.654Z,96151.84
2019-01-24T05:18:19.626Z,96150.09
2019-01-24T05:20:48.022Z,96155.12
2019-01-24T05:23:14.769Z,96155.19
2019-01-24T05:25:41.705Z,96153.84
2019-01-24T05:28:08.744Z,96161.23
2019-01-24T05:30:35.946Z,96159.73
2019-01-24T05:33:02.965Z,96164.23
2019-01-24T05:35:34.702Z,96167.17
2019-01-24T05:37:58.370Z,96177.77
2019-01-24T05:40:25.191Z,96177.33
2019-01-24T05:42:52.043Z,96175.63
2019-01-24T05:45:18.979Z,96175.72
2019-01-24T05:47:45.989Z,96178.43
2019-01-24T05:50:12.756Z,96182.41
2019-01-24T05:52:39.407Z,96182.00
2019-01-24T05:55:06.128Z,96184.11
2019-01-24T05:57:33.123Z,96184.06
2019-01-24T06:00:00.090Z,96187.02
2019-01-24T06:02:26.840Z,96186.92
2019-01-24T06:04:53.465Z,96179.56
2019-01-24T06:07:20.235Z,96183.38
2019-01-24T06:09:48.088Z,96181.86
2019-01-24T06:12:14.745Z,96189.91
2019-01-24T06:14:41.530Z,96192.27
2019-01-24T06:17:08.474Z,96192.42
2019-01-24T06:19:35.490Z,96189.37
2019-01-24T06:22:02.113Z,96184.82
2019-01-24T06:24:28.910Z,96184.63
2019-01-24T06:26:55.878Z,96191.98
2019-01-24T06:29:22.730Z,96195.27
2019-01-24T06:31:49.698Z,96194.52
2019-01-24T06:34:16.834Z,96187.97
2019-01-24T06:39:16.151Z,96192.77
2019-01-24T06:41:43.526Z,96190.77
2019-01-24T06:44:10.406Z,96192.12
2019-01-24T06:46:37.189Z,96203.06
2019-01-24T06:49:04.028Z,96202.44
2019-01-24T06:51:30.866Z,96207.45
2019-01-24T06:53:57.547Z,96209.97
2019-01-24T06:56:24.511Z,96215.91
2019-01-24T06:58:51.139Z,96223.17
2019-01-24T07:01:19.316Z,96222.98
2019-01-24T07:03:46.023Z,96223.13
2019-01-24T07:06:13.093Z,96228.23
2019-01-24T07:08:41.785Z,96227.61
2019-01-24T07:11:08.876Z,96237.55
2019-01-24T07:13:35.919Z,96243.36
2019-01-24T07:16:03.055Z,96247.45
2019-01-24T07:18:33.438Z,96244.31
2019-01-24T07:21:00.571Z,96250.12
2019-01-24T07:23:27.273Z,96246.91
2019-01-24T07:25:54.219Z,96250.06
2019-01-24T07:28:21.142Z,96248.28
2019-01-24T07:30:49.058Z,96247.68
2019-01-24T07:33:15.688Z,96251.92
2019-01-24T07:35:43.084Z,96258.27
2019-01-24T07:38:09.892Z,96259.83
2019-01-24T07:40:36.537Z,96257.27
2019-01-24T07:43:03.565Z,96257.52
2019-01-24T07:45:30.625Z,96258.56
2019-01-24T07:47:57.610Z,96262.42
2019-01-24T07:50:24.569Z,96258.41
2019-01-24T07:52:51.484Z,96254.48
2019-01-24T07:55:20.235Z,96256.06
2019-01-24T07:57:47.074Z,96252.89
2019-01-24T08:00:13.743Z,96252.41
2019-01-24T08:02:40.696Z,96256.27
2019-01-24T08:05:07.800Z,96252.67
2019-01-24T08:07:34.759Z,96254.20
2019-01-24T08:10:01.502Z,96254.68
2019-01-24T08:12:28.141Z,96253.46
2019-01-24T08:14:54.963Z,96248.69
2019-01-24T08:17:21.687Z,96247.64
2019-01-24T08:19:48.718Z,96252.90
2019-01-24T08:22:15.333Z,96252.00
2019-01-24T08:24:42.109Z,96253.27
2019-01-24T08:27:08.752Z,96247.67
2019-01-24T08:29:37.187Z,96258.91
2019-01-24T08:32:04.470Z,96255.47
2019-01-24T08:34:31.445Z,96255.56
2019-01-24T08:37:01.562Z,96254.62
2019-01-24T08:39:31.272Z,96264.89
2019-01-24T08:42:02.803Z,96255.52
2019-01-24T08:44:36.449Z,96262.58
2019-01-24T08:47:07.790Z,96263.16
2019-01-24T08:49:36.650Z,96263.61
2019-01-24T08:52:10.930Z,96264.65
2019-01-24T08:54:40.475Z,96265.04
2019-01-24T08:57:09.414Z,96266.81
2019-01-24T08:59:42.114Z,96252.80
2019-01-24T09:02:08.771Z,96263.11
2019-01-24T09:04:36.699Z,96260.48
2019-01-24T09:07:04.737Z,96263.11
2019-01-24T09:09:31.665Z,96259.52
2019-01-24T09:11:58.361Z,96256.21
2019-01-24T09:14:26.078Z,96254.40
2019-01-24T09:16:52.742Z,96259.38
2019-01-24T09:19:21.198Z,96262.25
2019-01-24T09:21:51.057Z,96256.90
2019-01-24T09:24:18.178Z,96259.86
2019-01-24T09:26:44.944Z,96261.30
2019-01-24T09:29:11.954Z,96261.22
2019-01-24T09:31:40.919Z,96261.30
2019-01-24T09:34:09.220Z,96255.92
2019-01-24T09:36:37.144Z,96253.34
2019-01-24T09:39:04.223Z,96251.80
2019-01-24T09:41:31.421Z,96251.84
2019-01-24T09:43:58.096Z,96255.16
2019-01-24T09:46:25.077Z,96253.80
2019-01-24T09:48:51.741Z,96258.28
2019-01-24T09:51:18.694Z,96256.73
2019-01-24T09:53:45.485Z,96255.57
2019-01-24T09:56:12.316Z,96252.70
2019-01-24T09:58:38.998Z,96254.81
2019-01-24T10:01:06.039Z,96251.14
2019-01-24T10:03:32.697Z,96246.38
2019-01-24T10:05:59.542Z,96241.34
2019-01-24T10:08:26.563Z,96244.84
2019-01-24T10:10:53.541Z,96239.34
2019-01-24T10:13:21.906Z,96245.13
2019-01-24T10:15:48.703Z,96243.37
2019-01-24T10:18:21.468Z,96238.41
2019-01-24T10:20:44.122Z,96235.58
2019-01-24T10:23:10.765Z,96236.37
2019-01-24T10:25:38.228Z,96236.41
2019-01-24T10:28:05.062Z,96232.84
2019-01-24T10:30:31.841Z,96227.17
2019-01-24T10:32:59.591Z,96231.09
2019-01-24T10:35:26.255Z,96228.31
2019-01-24T10:37:53.460Z,96220.83
2019-01-24T10:40:22.648Z,96215.78
2019-01-24T10:42:50.939Z,96222.54
2019-01-24T10:45:17.662Z,96216.92
2019-01-24T10:47:47.229Z,96212.70
2019-01-24T10:50:17.866Z,96213.08
2019-01-24T10:52:46.606Z,96217.30
2019-01-24T10:55:17.469Z,96205.93
2019-01-24T10:57:44.720Z,96209.16
2019-01-24T11:00:11.662Z,96206.84
2019-01-24T11:02:38.515Z,96202.61
2019-01-24T11:05:05.389Z,96199.89
2019-01-24T11:07:32.475Z,96203.83
2019-01-24T11:09:59.483Z,96201.38
2019-01-24T11:12:26.930Z,96208.71
2019-01-24T11:14:55.072Z,96204.80
2019-01-24T11:17:22.895Z,96201.16
2019-01-24T11:19:49.722Z,96202.98
2019-01-24T11:22:16.742Z,96196.93
2019-01-24T11:24:43.717Z,96195.26
2019-01-24T11:27:10.851Z,96204.94
2019-01-24T11:29:39.454Z,96195.14
2019-01-24T11:32:06.548Z,96195.53
2019-01-24T11:34:33.458Z,96189.80
2019-01-24T11:37:00.260Z,96195.61
2019-01-24T11:39:27.298Z,96192.92
2019-01-24T11:41:54.118Z,96187.42
2019-01-24T11:44:21.115Z,96184.99
2019-01-24T11:46:48.050Z,96187.59
2019-01-24T11:49:15.071Z,96184.99
2019-01-24T11:51:42.040Z,96183.14
2019-01-24T11:54:08.694Z,96185.39
2019-01-24T11:56:35.451Z,96184.95
2019-01-24T11:59:02.142Z,96175.59
2019-01-24T12:01:29.065Z,96187.38
2019-01-24T12:03:55.891Z,96181.98
2019-01-24T12:06:23.892Z,96180.36
2019-01-24T12:08:50.509Z,96184.77
2019-01-24T12:11:17.448Z,96182.81
2019-01-24T12:13:44.780Z,96180.29
2019-01-24T12:16:11.697Z,96173.20
2019-01-24T12:18:39.032Z,96170.45
2019-01-24T12:21:05.814Z,96179.23
2019-01-24T12:23:32.595Z,96172.48
2019-01-24T12:26:02.667Z,96177.31
2019-01-24T12:28:29.538Z,96175.78
2019-01-24T12:30:56.463Z,96177.06
2019-01-24T12:33:24.042Z,96176.04
2019-01-24T12:35:51.175Z,96170.94
2019-01-24T12:38:21.037Z,96175.48
2019-01-24T12:40:49.021Z,96174.95
2019-01-24T12:43:16.633Z,96169.57
2019-01-24T12:45:43.408Z,96170.28
2019-01-24T12:48:14.684Z,96173.44
2019-01-24T12:53:32.864Z,96175.23
2019-01-24T12:56:00.435Z,96171.17
2019-01-24T12:58:28.137Z,96179.22
2019-01-24T13:00:59.432Z,96177.30
2019-01-24T13:03:26.255Z,96179.70
2019-01-24T13:05:54.384Z,96182.82
2019-01-24T13:08:21.041Z,96173.32
2019-01-24T13:10:48.055Z,96175.82
2019-01-24T13:13:15.203Z,96176.64
2019-01-24T13:15:42.325Z,96182.40
2019-01-24T13:18:09.195Z,96180.58
2019-01-24T13:20:36.162Z,96175.84
2019-01-24T13:23:03.202Z,96180.45
2019-01-24T13:25:30.384Z,96178.83
2019-01-24T13:27:57.595Z,96177.95
2019-01-24T13:30:29.259Z,96176.59
2019-01-24T13:33:13.288Z,96169.17
2019-01-24T13:35:46.207Z,96172.81
2019-01-24T13:38:13.103Z,96171.14
2019-01-24T13:40:41.222Z,96173.27
2019-01-24T13:43:13.074Z,96175.89
2019-01-24T13:45:43.959Z,96173.36
2019-01-24T13:48:15.908Z,96174.47
2019-01-24T13:50:47.142Z,96176.10
2019-01-24T13:53:15.667Z,96178.88
2019-01-24T13:55:47.816Z,96182.40
2019-01-24T13:58:19.481Z,96177.88
2019-01-24T14:00:49.555Z,96182.22
2019-01-24T14:03:19.899Z,96180.42
2019-01-24T14:05:47.875Z,96181.30
2019-01-24T14:08:17.956Z,96178.48
2019-01-24T14:10:49.881Z,96185.14
2019-01-24T14:13:21.468Z,96188.47
2019-01-24T14:15:51.587Z,96194.72
2019-01-24T14:18:21.658Z,96188.88
2019-01-24T14:20:49.450Z,96187.48
2019-01-24T14:23:23.154Z,96194.32
2019-01-24T14:25:50.693Z,96186.78
2019-01-24T14:28:19.199Z,96198.45
2019-01-24T14:30:46.888Z,96197.97
2019-01-24T14:33:13.756Z,96198.39
2019-01-24T14:35:40.859Z,96197.17
2019-01-24T14:38:09.816Z,96200.19
2019-01-24T14:40:38.962Z,96197.97
2019-01-24T14:43:07.400Z,96190.08
2019-01-24T14:45:35.884Z,96198.22
2019-01-24T14:48:09.141Z,96198.45
2019-01-24T14:50:36.880Z,96199.08
2019-01-24T14:53:05.883Z,96204.98
2019-01-24T14:55:37.898Z,96207.81
2019-01-24T14:58:20.487Z,96204.30
2019-01-24T15:00:50.119Z,96199.56
2019-01-24T15:03:20.282Z,96198.81
2019-01-24T15:05:48.361Z,96200.45
2019-01-24T15:08:18.550Z,96205.63
2019-01-24T15:10:46.343Z,96202.53
2019-01-24T15:13:13.908Z,96205.13
2019-01-24T15:15:43.690Z,96203.47
2019-01-24T15:18:14.605Z,96200.33
2019-01-24T15:20:44.490Z,96211.92
2019-01-24T15:23:12.597Z,96205.98
2019-01-24T15:25:47.831Z,96215.65
2019-01-24T15:28:12.795Z,96214.70
2019-01-24T15:30:42.686Z,96211.00
2019-01-24T15:33:16.886Z,96231.28
2019-01-24T15:35:45.057Z,96223.80
2019-01-24T15:38:16.137Z,96230.20
2019-01-24T15:40:44.341Z,96235.52
2019-01-24T15:43:13.998Z,96239.33
2019-01-24T15:45:41.181Z,96244.41
2019-01-24T15:48:10.898Z,96248.12
2019-01-24T15:50:38.337Z,96249.13
2019-01-24T15:53:07.713Z,96253.51
2019-01-24T15:55:37.808Z,96250.20
2019-01-24T15:58:05.012Z,96254.84
2019-01-24T16:00:32.523Z,96251.94
2019-01-24T16:02:59.637Z,96265.84
2019-01-24T16:05:26.309Z,96264.67
2019-01-24T16:07:53.190Z,96265.38
2019-01-24T16:10:20.219Z,96269.11
2019-01-24T16:12:47.435Z,96268.37
2019-01-24T16:15:14.354Z,96283.41
2019-01-24T16:17:41.285Z,96286.65
2019-01-24T16:20:08.138Z,96287.38
2019-01-24T16:22:35.210Z,96285.49
2019-01-24T16:25:02.022Z,96290.66
2019-01-24T16:27:29.962Z,96292.95
2019-01-24T16:30:03.609Z,96290.09
2019-01-24T16:35:12.893Z,96299.64
2019-01-24T16:37:39.747Z,96300.03
2019-01-24T16:40:06.717Z,96305.73
2019-01-24T16:42:33.936Z,96317.73
2019-01-24T16:45:02.199Z,96315.09
2019-01-24T16:47:28.990Z,96324.05
2019-01-24T16:49:55.979Z,96323.59
2019-01-24T16:52:22.911Z,96330.42
2019-01-24T16:54:49.627Z,96335.67
2019-01-24T16:57:16.328Z,96342.09
2019-01-24T16:59:43.091Z,96337.81
2019-01-24T17:02:09.690Z,96337.81
2019-01-24T17:04:37.549Z,96346.71
2019-01-24T17:07:04.149Z,96351.12
2019-01-24T17:09:31.979Z,96346.23
2019-01-24T17:11:58.949Z,96344.20
2019-01-24T17:14:26.546Z,96351.47
2019-01-24T17:16:54.399Z,96355.33
2019-01-24T17:19:22.773Z,96358.65
2019-01-24T17:21:49.820Z,96361.71
2019-01-24T17:24:16.599Z,96361.67
2019-01-24T17:26:43.289Z,96364.34
2019-01-24T17:29:09.886Z,96364.77
2019-01-24T17:31:36.809Z,96364.48
2019-01-24T17:34:04.343Z,96366.66
2019-01-24T17:36:31.019Z,96370.38
2019-01-24T17:38:59.000Z,96373.53
2019-01-24T17:41:26.482Z,96382.48
2019-01-24T17:43:54.150Z,96379.87
2019-01-24T17:46:21.019Z,96387.27
2019-01-24T17:48:55.427Z,96386.84
2019-01-24T17:51:19.445Z,96381.03
2019-01-24T17:53:47.176Z,96382.13
2019-01-24T17:56:16.485Z,96389.47
2019-01-24T17:58:43.212Z,96387.11
2019-01-24T18:01:23.950Z,96387.73
2019-01-24T18:03:38.267Z,96394.16
2019-01-24T18:06:05.184Z,96393.38
2019-01-24T18:08:33.655Z,96394.97
2019-01-24T18:11:00.796Z,96398.84
2019-01-24T18:13:28.505Z,96394.85
2019-01-24T18:15:55.468Z,96406.88
2019-01-24T18:18:22.456Z,96405.94
2019-01-24T18:20:50.755Z,96399.78
2019-01-24T18:23:17.832Z,96403.37
2019-01-24T18:25:44.568Z,96405.64
2019-01-24T18:28:15.942Z,96410.01
2019-01-24T18:30:40.086Z,96411.47
2019-01-24T18:33:08.959Z,96414.91
2019-01-24T18:35:39.813Z,96419.42
2019-01-24T18:38:07.064Z,96411.65
2019-01-24T18:40:37.179Z,96411.01
2019-01-24T18:43:10.677Z,96414.08
2019-01-24T18:45:44.495Z,96411.14
2019-01-24T18:48:14.874Z,96409.34
2019-01-24T18:53:29.431Z,96413.23
2019-01-24T18:56:00.411Z,96412.25
2019-01-24T18:58:28.623Z,96412.75
2019-01-24T19:00:58.344Z,96410.11
2019-01-24T19:03:25.627Z,96404.61
2019-01-24T19:05:52.494Z,96408.84
2019-01-24T19:08:19.404Z,96407.52
2019-01-24T19:10:46.040Z,96412.75
2019-01-24T19:13:14.488Z,96412.70
2019-01-24T19:15:42.240Z,96407.20
2019-01-24T19:18:08.879Z,96399.80
2019-01-24T19:23:23.897Z,96404.81
2019-01-24T19:25:51.894Z,96405.14
2019-01-24T19:28:22.801Z,96405.00
2019-01-24T19:30:50.901Z,96401.74
2019-01-24T19:33:18.610Z,96403.20
2019-01-24T19:35:46.576Z,96408.03
2019-01-24T19:38:13.582Z,96407.80
2019-01-24T19:40:41.056Z,96407.47
2019-01-24T19:43:07.775Z,96405.23
2019-01-24T19:45:34.693Z,96409.97
2019-01-24T19:48:02.570Z,96404.89
2019-01-24T19:50:30.237Z,96408.77
2019-01-24T19:52:58.821Z,96411.74
2019-01-24T19:55:25.778Z,96402.66
2019-01-24T19:57:56.114Z,96403.53
2019-01-24T20:00:23.215Z,96407.23
2019-01-24T20:02:51.025Z,96408.00
2019-01-24T20:05:19.131Z,96405.58
2019-01-24T20:07:46.824Z,96411.61
2019-01-24T20:10:14.633Z,96403.64
2019-01-24T20:12:41.301Z,96409.95
2019-01-24T20:15:08.077Z,96401.98
2019-01-24T20:17:35.717Z,96406.17
2019-01-24T20:20:03.419Z,96398.39
2019-01-24T20:22:30.409Z,96406.67
2019-01-24T20:24:57.217Z,96405.85
2019-01-24T20:27:24.232Z,96407.13
2019-01-24T20:29:51.106Z,96410.69
2019-01-24T20:32:18.805Z,96408.17
2019-01-24T20:34:46.570Z,96407.19
2019-01-24T20:37:13.456Z,96407.80
2019-01-24T20:39:40.792Z,96406.02
2019-01-24T20:42:07.739Z,96406.48
2019-01-24T20:44:34.780Z,96396.55
2019-01-24T20:47:01.561Z,96399.73
2019-01-24T20:49:28.260Z,96403.83
2019-01-24T20:51:54.892Z,96402.89
2019-01-24T20:54:21.725Z,96402.92
2019-01-24T20:56:48.952Z,96407.94
2019-01-24T20:59:15.718Z,96413.54
2019-01-24T21:01:42.344Z,96410.89
2019-01-24T21:04:09.202Z,96408.52
2019-01-24T21:06:36.276Z,96410.33
2019-01-24T21:09:03.228Z,96406.25
2019-01-24T21:11:29.908Z,96410.09
2019-01-24T21:13:56.602Z,96410.06
2019-01-24T21:16:23.360Z,96414.08
2019-01-24T21:18:50.255Z,96416.92
2019-01-24T21:21:16.942Z,96413.81
2019-01-24T21:23:43.555Z,96426.44
2019-01-24T21:26:11.984Z,96429.43
2019-01-24T21:28:38.669Z,96431.20
2019-01-24T21:31:05.328Z,96434.02
2019-01-24T21:33:32.001Z,96441.73
2019-01-24T21:35:58.684Z,96438.48
2019-01-24T21:38:25.610Z,96450.03
2019-01-24T21:40:52.673Z,96446.99
2019-01-24T21:43:19.625Z,96443.50
2019-01-24T21:45:46.231Z,96446.91
2019-01-24T21:48:13.266Z,96449.72
2019-01-24T21:50:40.114Z,96453.83
2019-01-24T21:53:06.718Z,96450.86
2019-01-24T21:55:33.345Z,96458.36
2019-01-24T21:58:00.058Z,96459.45
2019-01-24T22:00:26.784Z,96472.48
2019-01-24T22:02:53.450Z,96467.77
2019-01-24T22:05:20.324Z,96468.73
2019-01-24T22:07:47.260Z,96474.58
2019-01-24T22:10:13.996Z,96477.19
2019-01-24T22:12:42.528Z,96477.66
2019-01-24T22:15:09.230Z,96475.73
2019-01-24T22:17:36.175Z,96475.55
2019-01-24T22:20:03.235Z,96471.95
2019-01-24T22:22:30.236Z,96474.50
2019-01-24T22:24:57.254Z,96473.07
2019-01-24T22:27:24.538Z,96480.37
2019-01-24T22:29:51.322Z,96488.23
2019-01-24T22:32:18.265Z,96480.44
2019-01-24T22:34:45.267Z,96489.20
2019-01-24T22:37:12.681Z,96484.88
2019-01-24T22:39:39.464Z,96483.38
2019-01-24T22:42:06.455Z,96491.98
2019-01-24T22:44:33.550Z,96491.93
2019-01-24T22:47:00.467Z,96492.12
2019-01-24T22:49:27.382Z,96500.30
2019-01-24T22:51:54.040Z,96491.38
2019-01-24T22:54:21.043Z,96493.84
2019-01-24T22:56:48.151Z,96494.95
2019-01-24T22:59:14.861Z,96498.72
2019-01-24T23:01:43.029Z,96504.58
2019-01-24T23:04:09.825Z,96502.48
2019-01-24T23:06:36.812Z,96511.91
2019-01-24T23:09:04.194Z,96508.97
2019-01-24T23:11:30.875Z,96508.34
2019-01-24T23:13:57.835Z,96505.75
2019-01-24T23:16:24.521Z,96505.61
2019-01-24T23:18:51.216Z,96507.22
2019-01-24T23:21:17.921Z,96506.41
2019-01-24T23:23:44.640Z,96506.91
2019-01-24T23:26:11.338Z,96506.10
2019-01-24T23:28:38.150Z,96517.61
2019-01-24T23:31:05.099Z,96516.95
2019-01-24T23:33:31.856Z,96511.44
2019-01-24T23:35:58.444Z,96513.55
2019-01-24T23:38:25.110Z,96510.77
2019-01-24T23:40:51.848Z,96507.84
2019-01-24T23:43:18.552Z,96509.44
2019-01-24T23:45:46.078Z,96512.37
2019-01-24T23:48:13.592Z,96513.05
2019-01-24T23:50:40.330Z,96507.34
2019-01-24T23:53:07.322Z,96516.25
2019-01-24T23:55:34.020Z,96508.95
2019-01-24T23:58:00.649Z,96511.87
